createdAt,value
2019-04-07T00:01:27.701Z,2.40
2019-04-07T00:04:20.392Z,2.30
2019-04-07T00:06:51.008Z,2.23
2019-04-07T00:09:20.867Z,2.13
2019-04-07T00:11:51.908Z,2.40
2019-04-07T00:14:21.522Z,4.03
2019-04-07T00:16:51.848Z,3.07
2019-04-07T00:19:22.158Z,3.40
2019-04-07T00:21:52.504Z,2.83
2019-04-07T00:24:22.822Z,5.03
2019-04-07T00:26:53.663Z,3.27
2019-04-07T00:29:24.239Z,2.13
2019-04-07T00:31:54.551Z,2.40
2019-04-07T00:34:24.860Z,1.70
2019-04-07T00:37:15.710Z,2.17
2019-04-07T00:39:45.658Z,2.53
2019-04-07T00:42:15.974Z,2.47
2019-04-07T00:44:46.612Z,1.83
2019-04-07T00:47:16.623Z,1.70
2019-04-07T00:49:47.541Z,1.30
2019-04-07T00:55:10.211Z,1.47
2019-04-07T00:57:40.723Z,1.57
2019-04-07T01:00:11.839Z,1.27
2019-04-07T01:02:45.041Z,1.63
2019-04-07T01:05:38.926Z,2.30
2019-04-07T01:08:06.419Z,1.23
2019-04-07T01:10:36.905Z,1.50
2019-04-07T01:13:06.735Z,2.27
2019-04-07T01:15:37.078Z,1.60
2019-04-07T01:18:07.788Z,1.57
2019-04-07T01:20:37.706Z,1.30
2019-04-07T01:23:08.153Z,1.40
2019-04-07T01:25:39.424Z,2.47
2019-04-07T01:28:08.666Z,1.47
2019-04-07T01:31:00.554Z,1.30
2019-04-07T01:33:31.400Z,1.30
2019-04-07T01:36:01.042Z,1.90
2019-04-07T01:38:33.423Z,1.03
2019-04-07T01:41:04.060Z,1.33
2019-04-07T01:43:38.591Z,1.53
2019-04-07T01:46:21.800Z,1.50
2019-04-07T01:49:11.753Z,1.13
2019-04-07T01:51:45.489Z,1.97
2019-04-07T01:54:17.991Z,1.67
2019-04-07T01:57:20.051Z,1.20
2019-04-07T01:59:49.592Z,1.37
2019-04-07T02:02:20.666Z,1.20
2019-04-07T02:05:09.709Z,1.37
2019-04-07T02:07:40.083Z,1.40
2019-04-07T02:10:09.785Z,1.40
2019-04-07T02:12:57.859Z,1.37
2019-04-07T02:15:45.385Z,1.57
2019-04-07T02:18:18.406Z,1.17
2019-04-07T02:21:04.312Z,1.57
2019-04-07T02:23:36.286Z,1.20
2019-04-07T02:26:13.619Z,1.33
2019-04-07T02:29:02.700Z,1.47
2019-04-07T02:31:38.450Z,0.93
2019-04-07T02:34:28.008Z,1.63
2019-04-07T02:37:03.054Z,1.30
2019-04-07T02:39:50.686Z,1.03
2019-04-07T02:42:39.629Z,1.73
2019-04-07T02:45:26.998Z,1.17
2019-04-07T02:47:57.689Z,0.97
2019-04-07T02:50:57.189Z,1.33
2019-04-07T02:53:30.881Z,1.50
2019-04-07T02:56:06.867Z,3.13
2019-04-07T02:58:37.993Z,1.63
2019-04-07T03:01:14.777Z,1.23
2019-04-07T03:03:50.567Z,1.70
2019-04-07T03:06:47.025Z,1.57
2019-04-07T03:09:09.128Z,1.07
2019-04-07T03:11:46.567Z,1.70
2019-04-07T03:14:19.906Z,1.73
2019-04-07T03:16:58.770Z,1.00
2019-04-07T03:19:31.886Z,1.40
2019-04-07T03:22:11.192Z,1.40
2019-04-07T03:24:50.370Z,1.40
2019-04-07T03:27:38.473Z,1.43
2019-04-07T03:30:13.365Z,1.13
2019-04-07T03:32:49.341Z,1.67
2019-04-07T03:35:44.988Z,1.10
2019-04-07T03:38:19.065Z,1.33
2019-04-07T03:40:56.920Z,2.10
2019-04-07T03:43:30.412Z,1.87
2019-04-07T03:46:06.608Z,1.63
2019-04-07T03:48:45.949Z,1.20
2019-04-07T03:51:26.535Z,1.47
2019-04-07T03:54:15.425Z,1.80
2019-04-07T03:56:45.447Z,1.63
2019-04-07T04:02:00.206Z,1.60
2019-04-07T04:04:30.139Z,1.60
2019-04-07T04:07:17.145Z,1.60
2019-04-07T04:09:32.392Z,1.97
2019-04-07T04:12:01.741Z,1.80
2019-04-07T04:14:34.824Z,1.60
2019-04-07T04:17:05.111Z,1.87
2019-04-07T04:19:36.147Z,1.67
2019-04-07T04:22:07.415Z,1.83
2019-04-07T04:24:57.656Z,2.83
2019-04-07T04:27:28.152Z,2.47
2019-04-07T04:29:57.839Z,6.03
2019-04-07T04:32:28.953Z,3.07
2019-04-07T04:34:59.483Z,3.67
2019-04-07T04:37:40.391Z,2.83
2019-04-07T04:40:01.955Z,2.70
2019-04-07T04:42:38.482Z,2.10
2019-04-07T04:45:08.727Z,2.50
2019-04-07T04:47:39.372Z,2.07
2019-04-07T04:50:09.924Z,2.00
2019-04-07T04:52:40.921Z,3.27
2019-04-07T04:55:33.739Z,2.57
2019-04-07T04:58:04.240Z,2.50
2019-04-07T05:00:36.407Z,1.90
2019-04-07T05:03:09.774Z,2.13
2019-04-07T05:05:39.962Z,2.13
2019-04-07T05:08:11.482Z,2.47
2019-04-07T05:10:41.645Z,1.77
2019-04-07T05:13:19.870Z,2.97
2019-04-07T05:15:50.195Z,4.67
2019-04-07T05:18:20.067Z,3.47
2019-04-07T05:20:50.347Z,2.77
2019-04-07T05:23:20.593Z,2.40
2019-04-07T05:25:51.473Z,2.40
2019-04-07T05:28:21.269Z,2.27
2019-04-07T05:30:51.855Z,2.33
2019-04-07T05:33:21.787Z,2.37
2019-04-07T05:36:12.522Z,2.57
2019-04-07T05:38:42.840Z,2.43
2019-04-07T05:41:13.154Z,2.60
2019-04-07T05:43:43.484Z,2.30
2019-04-07T05:46:13.910Z,2.70
2019-04-07T05:48:44.553Z,2.23
2019-04-07T05:51:22.096Z,2.37
2019-04-07T05:53:52.827Z,2.27
2019-04-07T05:56:25.884Z,2.50
2019-04-07T05:58:53.770Z,2.60
2019-04-07T06:01:26.866Z,2.07
2019-04-07T06:03:58.196Z,2.30
2019-04-07T06:06:30.148Z,2.17
2019-04-07T06:09:00.457Z,1.93
2019-04-07T06:11:33.040Z,2.47
2019-04-07T06:14:02.125Z,1.80
2019-04-07T06:16:32.444Z,2.10
2019-04-07T06:19:06.976Z,2.10
2019-04-07T06:21:52.687Z,3.30
2019-04-07T06:24:22.681Z,2.43
2019-04-07T06:26:53.588Z,2.43
2019-04-07T06:29:26.308Z,2.50
2019-04-07T06:31:56.329Z,2.13
2019-04-07T06:34:29.011Z,2.77
2019-04-07T06:36:59.043Z,4.37
2019-04-07T06:39:31.856Z,6.97
2019-04-07T06:42:01.434Z,3.80
2019-04-07T06:44:30.132Z,3.57
2019-04-07T06:47:03.448Z,2.60
2019-04-07T06:49:43.366Z,2.73
2019-04-07T06:52:12.098Z,2.00
2019-04-07T06:55:00.183Z,1.80
2019-04-07T06:57:37.528Z,1.77
2019-04-07T07:00:08.445Z,1.97
2019-04-07T07:02:40.716Z,2.43
2019-04-07T07:05:30.060Z,1.90
2019-04-07T07:08:00.813Z,2.37
2019-04-07T07:10:46.777Z,1.70
2019-04-07T07:16:11.475Z,2.27
2019-04-07T07:19:01.555Z,2.37
2019-04-07T07:21:29.577Z,2.07
2019-04-07T07:23:59.109Z,2.67
2019-04-07T07:26:32.986Z,3.50
2019-04-07T07:29:00.913Z,2.43
2019-04-07T07:31:30.827Z,2.50
2019-04-07T07:34:21.305Z,2.53
2019-04-07T07:36:53.429Z,2.53
2019-04-07T07:39:23.162Z,2.20
2019-04-07T07:41:53.999Z,2.23
2019-04-07T07:44:24.603Z,2.37
2019-04-07T07:46:55.487Z,3.28
2019-04-07T07:49:28.118Z,2.67
2019-04-07T07:51:57.030Z,1.63
2019-04-07T07:54:33.473Z,1.93
2019-04-07T07:57:03.463Z,3.30
2019-04-07T07:59:53.172Z,2.47
2019-04-07T08:02:23.760Z,1.50
2019-04-07T08:04:57.327Z,2.13
2019-04-07T08:07:24.729Z,2.07
2019-04-07T08:09:56.025Z,2.90
2019-04-07T08:12:25.532Z,1.40
2019-04-07T08:14:58.445Z,1.47
2019-04-07T08:17:27.729Z,1.70
2019-04-07T08:19:57.839Z,1.63
2019-04-07T08:22:40.547Z,1.73
2019-04-07T08:25:06.608Z,2.27
2019-04-07T08:27:36.954Z,1.30
2019-04-07T08:30:11.834Z,2.55
2019-04-07T08:32:38.871Z,1.57
2019-04-07T08:35:08.905Z,1.60
2019-04-07T08:37:40.514Z,1.73
2019-04-07T08:40:10.902Z,2.20
2019-04-07T08:43:01.214Z,1.53
2019-04-07T08:45:32.696Z,1.70
2019-04-07T08:48:01.426Z,3.57
2019-04-07T08:50:33.182Z,1.60
2019-04-07T08:53:03.194Z,1.83
2019-04-07T08:55:33.437Z,1.33
2019-04-07T08:58:05.546Z,1.80
2019-04-07T09:00:33.833Z,1.80
2019-04-07T09:03:11.102Z,1.40
2019-04-07T09:05:35.461Z,2.17
2019-04-07T09:08:06.358Z,0.93
2019-04-07T09:10:39.352Z,2.63
2019-04-07T09:13:12.128Z,1.83
2019-04-07T09:15:43.865Z,2.20
2019-04-07T09:18:19.161Z,0.90
2019-04-07T09:20:51.858Z,0.97
2019-04-07T09:23:25.258Z,2.23
2019-04-07T09:26:02.702Z,1.30
2019-04-07T09:28:33.167Z,2.03
2019-04-07T09:31:13.101Z,2.40
2019-04-07T09:33:51.869Z,2.87
2019-04-07T09:36:22.331Z,1.13
2019-04-07T09:38:52.499Z,1.00
2019-04-07T09:41:27.406Z,1.13
2019-04-07T09:46:51.204Z,2.20
2019-04-07T09:49:35.535Z,1.30
2019-04-07T09:52:10.344Z,0.90
2019-04-07T09:54:38.698Z,1.97
2019-04-07T09:57:18.005Z,1.00
2019-04-07T09:59:56.456Z,3.03
2019-04-07T10:02:44.921Z,1.00
2019-04-07T10:05:53.582Z,1.30
2019-04-07T10:08:43.277Z,0.83
2019-04-07T10:11:14.737Z,1.17
2019-04-07T10:14:03.464Z,2.60
2019-04-07T10:16:48.520Z,1.40
2019-04-07T10:19:18.873Z,1.40
2019-04-07T10:21:52.693Z,0.80
2019-04-07T10:24:23.505Z,1.23
2019-04-07T10:26:56.348Z,2.10
2019-04-07T10:29:42.738Z,1.10
2019-04-07T10:32:15.175Z,1.50
2019-04-07T10:34:46.520Z,2.10
2019-04-07T10:37:36.203Z,1.50
2019-04-07T10:40:24.345Z,1.37
2019-04-07T10:43:09.565Z,2.20
2019-04-07T10:45:57.985Z,1.87
2019-04-07T10:48:29.783Z,1.87
2019-04-07T10:51:02.213Z,0.67
2019-04-07T10:53:41.664Z,2.20
2019-04-07T10:56:14.361Z,0.80
2019-04-07T10:58:50.047Z,1.20
2019-04-07T11:01:23.594Z,1.57
2019-04-07T11:03:57.599Z,0.67
2019-04-07T11:06:34.646Z,0.70
2019-04-07T11:09:11.200Z,1.37
2019-04-07T11:12:00.048Z,1.20
2019-04-07T11:14:29.640Z,1.40
2019-04-07T11:17:02.625Z,2.73
2019-04-07T11:19:36.290Z,2.43
2019-04-07T11:22:12.621Z,1.10
2019-04-07T11:24:55.780Z,1.57
2019-04-07T11:27:40.879Z,1.90
2019-04-07T11:30:27.323Z,2.43
2019-04-07T11:33:06.099Z,1.93
2019-04-07T11:35:45.644Z,1.97
2019-04-07T11:38:32.230Z,0.90
2019-04-07T11:41:02.496Z,1.63
2019-04-07T11:43:40.926Z,1.40
2019-04-07T11:46:14.010Z,2.63
2019-04-07T11:49:09.406Z,2.33
2019-04-07T11:51:45.046Z,3.20
2019-04-07T11:54:18.282Z,1.90
2019-04-07T11:59:39.359Z,1.10
2019-04-07T12:02:28.219Z,0.83
2019-04-07T12:05:15.936Z,1.50
2019-04-07T12:07:55.770Z,2.13
2019-04-07T12:10:34.502Z,1.77
2019-04-07T12:13:11.180Z,2.03
2019-04-07T12:15:45.206Z,1.73
2019-04-07T12:18:21.477Z,1.10
2019-04-07T12:20:54.332Z,0.50
2019-04-07T12:23:40.264Z,1.30
2019-04-07T12:26:28.108Z,1.33
2019-04-07T12:29:14.440Z,1.23
2019-04-07T12:31:59.664Z,1.17
2019-04-07T12:34:36.141Z,2.27
2019-04-07T12:37:07.797Z,1.30
2019-04-07T12:39:49.532Z,3.10
2019-04-07T12:42:22.336Z,3.60
2019-04-07T12:45:10.050Z,2.03
2019-04-07T12:47:41.094Z,2.03
2019-04-07T12:50:17.384Z,1.40
2019-04-07T12:52:57.819Z,1.30
2019-04-07T12:55:26.447Z,1.00
2019-04-07T12:57:57.406Z,1.07
2019-04-07T13:00:30.844Z,2.73
2019-04-07T13:03:00.573Z,1.37
2019-04-07T13:05:36.788Z,1.50
2019-04-07T13:08:12.684Z,1.53
2019-04-07T13:11:04.716Z,1.17
2019-04-07T13:13:34.233Z,1.67
2019-04-07T13:16:27.824Z,1.23
2019-04-07T13:19:15.708Z,1.73
2019-04-07T13:21:57.320Z,2.07
2019-04-07T13:24:41.387Z,1.23
2019-04-07T13:27:27.732Z,1.53
2019-04-07T13:29:57.639Z,1.87
2019-04-07T13:32:38.060Z,2.90
2019-04-07T13:35:01.217Z,1.27
2019-04-07T13:37:38.379Z,3.23
2019-04-07T13:40:18.296Z,0.97
2019-04-07T13:42:52.094Z,2.43
2019-04-07T13:45:32.860Z,1.43
2019-04-07T13:48:02.836Z,0.90
2019-04-07T13:50:35.467Z,2.77
2019-04-07T13:53:12.163Z,0.90
2019-04-07T13:55:43.890Z,0.83
2019-04-07T13:58:25.103Z,0.93
2019-04-07T14:01:07.394Z,0.90
2019-04-07T14:04:00.098Z,1.20
2019-04-07T14:06:48.999Z,1.03
2019-04-07T14:09:22.265Z,0.90
2019-04-07T14:12:04.038Z,1.03
2019-04-07T14:14:42.612Z,2.43
2019-04-07T14:20:37.565Z,1.03
2019-04-07T14:23:16.600Z,0.73
2019-04-07T14:26:05.696Z,1.90
2019-04-07T14:28:35.697Z,1.03
2019-04-07T14:31:16.496Z,1.20
2019-04-07T14:33:58.982Z,1.43
2019-04-07T14:36:29.999Z,1.50
2019-04-07T14:39:06.632Z,0.90
2019-04-07T14:41:36.860Z,1.83
2019-04-07T14:44:35.837Z,2.00
2019-04-07T14:47:10.854Z,1.50
2019-04-07T14:50:09.069Z,2.57
2019-04-07T14:52:57.102Z,1.50
2019-04-07T14:55:31.498Z,1.87
2019-04-07T14:58:03.138Z,0.83
2019-04-07T15:00:33.555Z,0.93
2019-04-07T15:03:04.070Z,1.10
2019-04-07T15:05:35.339Z,2.43
2019-04-07T15:08:11.675Z,1.30
2019-04-07T15:10:44.101Z,0.83
2019-04-07T15:13:14.429Z,0.90
2019-04-07T15:15:44.744Z,0.80
2019-04-07T15:18:16.494Z,0.87
2019-04-07T15:21:05.715Z,3.33
2019-04-07T15:23:36.778Z,1.30
2019-04-07T15:26:06.197Z,1.43
2019-04-07T15:28:37.201Z,1.20
2019-04-07T15:31:06.855Z,1.00
2019-04-07T15:33:38.216Z,0.87
2019-04-07T15:36:09.296Z,0.60
2019-04-07T15:38:41.467Z,1.37
2019-04-07T15:41:15.376Z,3.13
2019-04-07T15:43:41.146Z,2.70
2019-04-07T15:46:10.671Z,1.60
2019-04-07T16:17:49.124Z,1.10
2019-04-07T16:20:24.553Z,2.13
2019-04-07T16:22:52.652Z,1.83
2019-04-07T16:25:25.400Z,1.20
2019-04-07T16:27:53.170Z,0.90
2019-04-07T16:30:23.492Z,1.87
2019-04-07T16:32:54.747Z,1.80
2019-04-07T16:35:26.266Z,2.30
2019-04-07T16:37:55.512Z,2.10
2019-04-07T16:40:33.926Z,3.23
2019-04-07T16:43:10.957Z,1.83
2019-04-07T16:45:34.003Z,2.17
2019-04-07T16:48:06.343Z,1.43
2019-04-07T16:50:35.047Z,1.10
2019-04-07T16:55:52.748Z,1.17
2019-04-07T16:58:26.420Z,1.33
2019-04-07T17:00:56.770Z,1.10
2019-04-07T17:03:27.564Z,1.30
2019-04-07T17:06:00.035Z,0.83
2019-04-07T17:08:28.834Z,1.47
2019-04-07T17:11:01.642Z,1.30
2019-04-07T17:13:37.425Z,1.93
2019-04-07T17:15:59.885Z,1.30
2019-04-07T17:18:37.516Z,1.50
2019-04-07T17:21:12.742Z,1.07
2019-04-07T17:23:41.091Z,1.10
2019-04-07T17:26:16.562Z,3.03
2019-04-07T17:28:48.208Z,3.60
2019-04-07T17:31:17.603Z,3.47
2019-04-07T17:33:47.657Z,0.90
2019-04-07T17:36:21.101Z,1.80
2019-04-07T17:38:52.346Z,2.80
2019-04-07T17:41:23.436Z,7.97
2019-04-07T17:43:59.052Z,5.93
2019-04-07T17:46:26.535Z,10.00
2019-04-07T17:49:14.792Z,3.67
2019-04-07T17:51:53.989Z,2.70
2019-04-07T17:54:46.416Z,2.77
2019-04-07T17:57:21.291Z,4.00
2019-04-07T17:59:52.223Z,1.67
2019-04-07T18:02:22.861Z,2.30
2019-04-07T18:05:12.615Z,3.33
2019-04-07T18:07:43.500Z,3.03
2019-04-07T18:10:12.259Z,2.43
2019-04-07T18:13:01.088Z,1.53
2019-04-07T18:16:08.334Z,3.57
2019-04-07T18:18:38.262Z,3.47
2019-04-07T18:21:16.857Z,3.10
2019-04-07T18:24:03.494Z,4.00
2019-04-07T18:26:35.450Z,2.67
2019-04-07T18:29:25.720Z,2.73
2019-04-07T18:32:10.271Z,2.40
2019-04-07T18:34:39.713Z,2.13
2019-04-07T18:37:46.651Z,3.17
2019-04-07T18:41:00.382Z,3.20
2019-04-07T18:43:33.793Z,6.07
2019-04-07T18:46:10.110Z,7.40
2019-04-07T18:48:54.401Z,5.67
2019-04-07T18:51:44.568Z,5.43
2019-04-07T18:54:13.493Z,5.37
2019-04-07T18:57:11.887Z,3.90
2019-04-07T18:59:50.355Z,4.70
2019-04-07T19:02:30.045Z,4.03
2019-04-07T19:05:05.247Z,3.83
2019-04-07T19:07:53.510Z,3.67
2019-04-07T19:10:45.497Z,4.77
2019-04-07T19:13:24.715Z,8.33
2019-04-07T19:15:49.357Z,4.17
2019-04-07T19:18:28.411Z,5.20
2019-04-07T19:21:33.758Z,6.27
2019-04-07T19:24:21.354Z,7.03
2019-04-07T19:27:14.359Z,5.70
2019-04-07T19:29:44.869Z,7.73
2019-04-07T19:32:23.489Z,7.20
2019-04-07T19:37:44.314Z,8.07
2019-04-07T19:40:16.892Z,7.33
2019-04-07T19:43:28.314Z,7.90
2019-04-07T19:46:14.747Z,8.40
2019-04-07T19:48:50.251Z,7.10
2019-04-07T19:51:39.499Z,5.87
2019-04-07T19:54:21.728Z,5.10
2019-04-07T19:56:51.651Z,5.83
2019-04-07T19:59:23.824Z,5.67
2019-04-07T20:02:00.782Z,6.17
2019-04-07T20:04:43.989Z,4.10
2019-04-07T20:07:14.311Z,4.00
2019-04-07T20:09:50.568Z,3.53
2019-04-07T20:15:09.145Z,3.83
2019-04-07T20:17:43.391Z,4.17
2019-04-07T20:20:17.416Z,4.20
2019-04-07T20:22:56.425Z,10.27
2019-04-07T20:25:35.226Z,9.33
2019-04-07T20:28:20.717Z,5.10
2019-04-07T20:31:08.246Z,4.20
2019-04-07T20:33:38.060Z,4.03
2019-04-07T20:36:26.891Z,4.60
2019-04-07T20:38:58.533Z,4.47
2019-04-07T20:41:35.880Z,3.40
2019-04-07T20:44:14.374Z,4.70
2019-04-07T20:47:02.062Z,3.30
2019-04-07T20:49:38.052Z,3.27
2019-04-07T20:52:25.013Z,3.47
2019-04-07T20:54:54.254Z,3.43
2019-04-07T20:57:42.712Z,4.63
2019-04-07T21:00:30.794Z,2.87
2019-04-07T21:03:21.297Z,5.63
2019-04-07T21:05:56.055Z,4.63
2019-04-07T21:08:30.255Z,6.10
2019-04-07T21:11:07.506Z,3.80
2019-04-07T21:13:43.046Z,4.33
2019-04-07T21:16:29.947Z,3.70
2019-04-07T21:19:16.960Z,3.13
2019-04-07T21:21:47.838Z,5.47
2019-04-07T21:24:40.083Z,3.73
2019-04-07T21:30:00.873Z,2.97
2019-04-07T21:32:51.364Z,2.63
2019-04-07T21:35:19.399Z,2.37
2019-04-07T21:37:49.711Z,2.80
2019-04-07T21:40:20.952Z,2.57
2019-04-07T21:43:00.538Z,2.67
2019-04-07T21:45:47.121Z,1.90
2019-04-07T21:48:31.987Z,2.43
2019-04-07T21:51:26.916Z,2.03
2019-04-07T21:53:59.948Z,2.47
2019-04-07T21:56:49.527Z,1.83
2019-04-07T21:59:33.620Z,1.67
2019-04-07T22:02:02.743Z,1.53
2019-04-07T22:04:34.577Z,2.17
2019-04-07T22:07:23.124Z,1.87
2019-04-07T22:09:53.432Z,1.67
2019-04-07T22:12:29.527Z,2.33
2019-04-07T22:14:54.908Z,2.80
2019-04-07T22:17:26.171Z,2.73
2019-04-07T22:19:56.520Z,3.23
2019-04-07T22:22:31.089Z,2.47
2019-04-07T22:25:01.229Z,2.00
2019-04-07T22:27:31.312Z,1.90
2019-04-07T22:30:04.808Z,2.40
2019-04-07T22:32:31.965Z,4.10
2019-04-07T22:35:06.461Z,2.80
2019-04-07T22:37:34.524Z,1.30
2019-04-07T22:40:05.157Z,1.63
2019-04-07T22:42:35.068Z,1.47
2019-04-07T22:45:06.014Z,2.03
2019-04-07T22:47:35.787Z,1.60
2019-04-07T22:50:06.732Z,1.97
2019-04-07T22:52:55.461Z,1.80
2019-04-07T22:55:25.774Z,3.07
2019-04-07T22:57:56.089Z,2.30
2019-04-07T23:00:28.757Z,1.80
2019-04-07T23:02:59.496Z,6.13
2019-04-07T23:05:29.751Z,2.03
2019-04-07T23:08:05.860Z,1.93
2019-04-07T23:10:36.164Z,1.80
2019-04-07T23:13:06.479Z,1.90
2019-04-07T23:15:43.753Z,2.33
2019-04-07T23:18:07.900Z,1.93
2019-04-07T23:20:42.352Z,2.50
2019-04-07T23:23:12.647Z,2.17
2019-04-07T23:25:47.053Z,2.50
2019-04-07T23:28:19.436Z,2.37
2019-04-07T23:30:49.746Z,2.37
2019-04-07T23:33:22.308Z,3.00
2019-04-07T23:35:53.471Z,4.93
2019-04-07T23:38:24.635Z,5.37
2019-04-07T23:41:14.354Z,3.97
2019-04-07T23:43:45.979Z,4.17
2019-04-07T23:46:23.178Z,3.07
2019-04-07T23:48:46.095Z,2.73
2019-04-07T23:51:21.523Z,3.23
2019-04-07T23:54:07.251Z,1.90
2019-04-07T23:56:36.387Z,3.00
2019-04-07T23:59:06.696Z,2.50
